FAUT

K. D. Matanzima Airport

Mthatha, South Africa
METAR FAUT 170200Z AUTO 16005KT //// // ////// 18/15 Q1015
Observed Flight Rules
Dec-17 @ 02:00 UTC (32 minutes ago)
Wind
160° at 5 knots
Temperatures Readings
Current 18°C / 64°F
Dewpoint 15°C / 59°F
Humidity 83%
Altimeter 29.97" Hg
Pressure 1015 hPa
Elevation 732
METAR FAUT 170200Z AUTO 16005KT //// // ////// 18/15 Q1015
Observed Flight Rules
Dec-17 @ 02:00 UTC
(32 minutes ago)
Wind
160° at 5 knots
Temperature Dewpoint
18°C / 64°F 15°C / 59°F
Humidity Altimeter Pressure
83% 29.97" Hg 1015 hPa